createdAt,value
2018-02-23T14:11:04.597Z,-87
2018-02-23T14:12:04.674Z,-81
2018-02-23T16:02:59.764Z,-96
2018-02-23T16:04:15.757Z,-72
2018-02-23T16:05:15.903Z,-77
2018-02-23T16:22:09.995Z,-76
2018-02-23T16:23:10.087Z,-77
2018-02-23T16:24:09.969Z,-76
2018-02-23T16:25:10.104Z,-74
2018-02-23T16:26:09.972Z,-73
2018-02-23T16:27:10.085Z,-73
2018-02-23T16:28:09.978Z,-73
2018-02-23T16:29:10.206Z,-73
2018-02-23T16:30:09.995Z,-73
2018-02-23T16:31:10.089Z,-71
2018-02-23T16:32:09.973Z,-71
2018-02-23T16:33:10.383Z,-71
2018-02-23T16:34:09.976Z,-71
2018-02-23T16:35:10.115Z,-71
2018-02-23T16:36:09.978Z,-71
2018-02-23T16:37:10.098Z,-71
2018-02-23T16:38:09.979Z,-71
2018-02-23T16:39:10.096Z,-71
2018-02-23T16:40:10.027Z,-71
2018-02-23T16:41:10.091Z,-71
2018-02-23T16:42:09.979Z,-71
2018-02-23T16:43:10.121Z,-71
2018-02-23T16:44:09.987Z,-71
2018-02-23T16:45:10.554Z,-71
2018-02-23T16:46:09.984Z,-71
2018-02-23T16:47:10.104Z,-71
2018-02-23T16:48:09.991Z,-71
2018-02-23T16:49:10.098Z,-71
2018-02-23T16:50:10.011Z,-71
2018-02-23T16:51:10.120Z,-71
2018-02-23T16:52:09.988Z,-71
2018-02-23T16:53:10.103Z,-71
2018-02-23T16:54:09.988Z,-71
2018-02-23T16:55:10.125Z,-71
2018-02-23T16:56:09.992Z,-70
2018-02-23T16:57:10.111Z,-71
2018-02-23T16:58:09.992Z,-71
2018-02-23T16:59:10.120Z,-71
2018-02-23T17:00:10.017Z,-70
2018-02-23T17:01:10.111Z,-71
2018-02-23T17:02:09.995Z,-70
2018-02-23T17:03:10.115Z,-71
2018-02-23T17:04:10.091Z,-71
2018-02-23T17:05:10.136Z,-71
2018-02-23T17:06:09.998Z,-70
2018-02-23T17:07:10.112Z,-71
2018-02-23T17:08:09.996Z,-71
2018-02-23T17:09:10.509Z,-71
2018-02-23T17:10:10.023Z,-71
2018-02-23T17:11:10.158Z,-70
2018-02-23T17:12:10.002Z,-71
2018-02-23T17:13:10.136Z,-71
2018-02-23T17:14:10.003Z,-71
2018-02-23T17:15:10.142Z,-71
2018-02-23T17:16:10.002Z,-71
2018-02-23T17:17:10.119Z,-71
2018-02-23T17:18:10.006Z,-71
2018-02-23T17:19:10.119Z,-71
2018-02-23T17:20:10.035Z,-71
2018-02-23T17:21:10.122Z,-71
2018-02-23T17:22:10.012Z,-71
2018-02-23T17:23:10.119Z,-71
2018-02-23T17:24:10.011Z,-71
2018-02-23T17:25:10.152Z,-71
2018-02-23T17:26:10.009Z,-71
2018-02-23T17:27:10.123Z,-71
2018-02-23T17:28:10.013Z,-71
2018-02-23T17:29:10.129Z,-71
2018-02-23T17:30:10.039Z,-71
2018-02-23T17:31:10.133Z,-71
2018-02-23T17:32:10.020Z,-71
2018-02-23T17:33:10.134Z,-71
2018-02-23T17:34:10.017Z,-71
2018-02-23T17:35:10.156Z,-71
2018-02-23T17:36:10.019Z,-71
2018-02-23T17:37:10.137Z,-71
2018-02-23T17:38:10.019Z,-71
2018-02-23T17:39:10.134Z,-71
2018-02-23T17:40:10.058Z,-71
2018-02-23T17:41:10.208Z,-71
2018-02-23T17:42:10.025Z,-71
2018-02-23T17:43:10.177Z,-71
2018-02-23T17:44:10.100Z,-71
2018-02-23T17:45:10.225Z,-71
2018-02-23T17:46:10.050Z,-71
2018-02-23T17:47:10.333Z,-71
2018-02-23T17:48:10.028Z,-71
2018-02-23T17:49:10.141Z,-71
2018-02-23T17:50:10.082Z,-71
2018-02-23T17:51:10.166Z,-71
2018-02-23T17:52:10.030Z,-71
2018-02-23T17:53:10.144Z,-71
2018-02-23T17:54:10.031Z,-71
2018-02-23T17:55:10.148Z,-71
2018-02-23T17:56:10.055Z,-71
2018-02-23T17:57:10.282Z,-70
2018-02-23T17:58:10.106Z,-71
2018-02-23T17:59:10.150Z,-71
2018-02-23T18:00:10.034Z,-71
2018-02-23T18:01:10.173Z,-71
2018-02-23T18:02:10.038Z,-71
2018-02-23T18:03:10.151Z,-71
2018-02-23T18:04:10.038Z,-72
2018-02-23T18:05:10.149Z,-71
2018-02-23T18:06:10.061Z,-71
2018-02-23T18:07:10.157Z,-71
2018-02-23T18:08:10.039Z,-71
2018-02-23T18:09:10.153Z,-71
2018-02-23T18:10:10.042Z,-71
2018-02-23T18:11:10.181Z,-71
2018-02-23T18:12:10.043Z,-71
2018-02-23T18:13:10.163Z,-71
2018-02-23T18:14:10.043Z,-71
2018-02-23T18:15:10.162Z,-71
2018-02-23T18:16:10.068Z,-71
2018-02-23T18:17:10.160Z,-71
2018-02-23T18:18:10.049Z,-71
2018-02-23T18:19:10.173Z,-71
2018-02-23T18:20:10.050Z,-71
2018-02-23T18:21:10.186Z,-71
2018-02-23T18:22:10.055Z,-71
2018-02-23T18:23:10.166Z,-71
2018-02-23T18:24:10.061Z,-71
2018-02-23T18:25:10.170Z,-71
2018-02-23T18:26:10.077Z,-71
2018-02-23T18:27:10.172Z,-71
2018-02-23T18:28:10.053Z,-71
2018-02-23T18:29:10.169Z,-71
2018-02-23T18:30:10.075Z,-71
2018-02-23T18:31:10.192Z,-71
2018-02-23T18:32:10.062Z,-71
2018-02-23T18:33:10.173Z,-71
2018-02-23T18:34:10.059Z,-71
2018-02-23T18:35:10.209Z,-71
2018-02-23T18:36:10.084Z,-71
2018-02-23T18:37:10.188Z,-71
2018-02-23T18:38:10.060Z,-71
2018-02-23T18:39:10.177Z,-71
2018-02-23T18:40:10.061Z,-71
2018-02-23T18:41:10.207Z,-71
2018-02-23T18:42:10.119Z,-71
2018-02-23T18:43:10.243Z,-71
2018-02-23T18:44:10.065Z,-71
2018-02-23T18:45:10.196Z,-71
2018-02-23T18:46:10.089Z,-71
2018-02-23T18:47:10.181Z,-71
2018-02-23T18:48:10.067Z,-70
2018-02-23T18:49:10.281Z,-70
2018-02-23T18:50:10.069Z,-71
2018-02-23T18:51:10.209Z,-71
2018-02-23T18:52:10.071Z,-71
2018-02-23T18:53:10.186Z,-70
2018-02-23T18:54:10.073Z,-71
2018-02-23T18:55:10.209Z,-71
2018-02-23T18:56:10.098Z,-71
2018-02-23T18:57:10.191Z,-71
2018-02-23T18:58:10.074Z,-71
2018-02-23T18:59:10.244Z,-71
2018-02-23T19:00:10.076Z,-71
2018-02-23T19:01:10.290Z,-71
2018-02-23T19:02:10.079Z,-71
2018-02-23T19:03:10.193Z,-71
2018-02-23T19:04:10.081Z,-71
2018-02-23T19:05:10.275Z,-71
2018-02-23T19:06:10.106Z,-71
2018-02-23T19:07:10.206Z,-71
2018-02-23T19:08:10.085Z,-71
2018-02-23T19:09:10.243Z,-71
2018-02-23T19:10:10.081Z,-71
2018-02-23T19:11:10.258Z,-71
2018-02-23T19:12:10.082Z,-71
2018-02-23T19:13:10.201Z,-72
2018-02-23T19:14:10.085Z,-71
2018-02-23T19:15:10.202Z,-71
2018-02-23T19:16:10.110Z,-71
2018-02-23T19:17:10.204Z,-71
2018-02-23T19:18:10.092Z,-71
2018-02-23T19:19:10.207Z,-71
2018-02-23T19:20:10.093Z,-71
2018-02-23T19:21:10.229Z,-71
2018-02-23T19:22:10.133Z,-71
2018-02-23T19:23:10.209Z,-71
2018-02-23T19:24:10.095Z,-71
2018-02-23T19:25:10.210Z,-71
2018-02-23T19:26:10.117Z,-71
2018-02-23T19:27:10.217Z,-72
2018-02-23T19:28:10.179Z,-71
2018-02-23T19:29:10.310Z,-71
2018-02-23T19:30:10.147Z,-71
2018-02-23T19:31:10.238Z,-71
2018-02-23T19:32:10.099Z,-71
2018-02-23T19:33:10.262Z,-71
2018-02-23T19:34:10.151Z,-72
2018-02-23T19:35:10.218Z,-71
2018-02-23T19:36:10.123Z,-71
2018-02-23T19:37:10.221Z,-71
2018-02-23T19:38:10.103Z,-71
2018-02-23T19:39:10.240Z,-71
2018-02-23T19:40:10.102Z,-71
2018-02-23T19:41:10.244Z,-71
2018-02-23T19:42:10.105Z,-71
2018-02-23T19:43:10.221Z,-71
2018-02-23T19:44:10.105Z,-71
2018-02-23T19:45:10.222Z,-71
2018-02-23T19:46:10.131Z,-71
2018-02-23T19:47:10.223Z,-71
2018-02-23T19:48:10.110Z,-71
2018-02-23T19:49:10.225Z,-71
2018-02-23T19:50:10.109Z,-71
2018-02-23T19:51:10.256Z,-72
2018-02-23T19:52:10.113Z,-72
2018-02-23T19:53:10.226Z,-72
2018-02-23T19:54:10.114Z,-72
2018-02-23T19:55:10.226Z,-72
2018-02-23T19:56:10.137Z,-71
2018-02-23T19:57:10.291Z,-71
2018-02-23T19:58:10.118Z,-71
2018-02-23T19:59:10.233Z,-71
2018-02-23T20:00:10.117Z,-71
2018-02-23T20:01:10.260Z,-71
2018-02-23T20:02:10.140Z,-71
2018-02-23T20:03:10.337Z,-71
2018-02-23T20:04:10.177Z,-71
2018-02-23T20:05:10.234Z,-71
2018-02-23T20:06:10.164Z,-71
2018-02-23T20:07:10.238Z,-71
2018-02-23T20:08:10.123Z,-71
2018-02-23T20:09:10.241Z,-71
2018-02-23T20:10:10.274Z,-71
2018-02-23T20:11:10.264Z,-71
2018-02-23T20:12:10.136Z,-71
2018-02-23T20:13:10.248Z,-71
2018-02-23T20:14:10.128Z,-71
2018-02-23T20:15:10.276Z,-71
2018-02-23T20:16:10.152Z,-71
2018-02-23T20:17:10.251Z,-71
2018-02-23T20:18:10.130Z,-71
2018-02-23T20:19:10.245Z,-71
2018-02-23T20:20:10.130Z,-72
2018-02-23T20:21:10.303Z,-72
2018-02-23T20:22:10.144Z,-72
2018-02-23T20:23:10.260Z,-72
2018-02-23T20:24:10.133Z,-72
2018-02-23T20:25:10.249Z,-72
2018-02-23T20:26:10.161Z,-72
2018-02-23T20:27:10.250Z,-72
2018-02-23T20:28:10.137Z,-72
2018-02-23T20:29:10.253Z,-72
2018-02-23T20:30:10.139Z,-72
2018-02-23T20:31:10.277Z,-71
2018-02-23T20:32:10.142Z,-71
2018-02-23T20:33:10.257Z,-71
2018-02-23T20:34:10.140Z,-71
2018-02-23T20:35:10.301Z,-71
2018-02-23T20:36:10.171Z,-71
2018-02-23T20:37:10.261Z,-71
2018-02-23T20:38:10.143Z,-71
2018-02-23T20:39:10.259Z,-71
2018-02-23T20:40:10.145Z,-71
2018-02-23T20:41:10.290Z,-71
2018-02-23T20:42:10.149Z,-71
2018-02-23T20:43:10.265Z,-71
2018-02-23T20:44:10.150Z,-71
2018-02-23T20:45:10.268Z,-71
2018-02-23T20:46:10.184Z,-71
2018-02-23T20:47:10.264Z,-71
2018-02-23T20:48:10.149Z,-71
2018-02-23T20:49:10.270Z,-72
2018-02-23T20:50:10.151Z,-72
2018-02-23T20:51:10.268Z,-71
2018-02-23T20:52:10.176Z,-71
2018-02-23T20:53:10.272Z,-71
2018-02-23T20:54:10.156Z,-71
2018-02-23T20:55:10.287Z,-71
2018-02-23T20:56:10.156Z,-71
2018-02-23T20:57:10.298Z,-71
2018-02-23T20:58:10.210Z,-71
2018-02-23T20:59:10.333Z,-71
2018-02-23T21:00:10.160Z,-71
2018-02-23T21:01:10.276Z,-71
2018-02-23T21:02:10.184Z,-72
2018-02-23T21:03:10.277Z,-71
2018-02-23T21:04:10.162Z,-71
2018-02-23T21:05:10.294Z,-71
2018-02-23T21:06:10.163Z,-71
2018-02-23T21:07:10.303Z,-71
2018-02-23T21:08:10.165Z,-71
2018-02-23T21:09:10.280Z,-71
2018-02-23T21:10:10.174Z,-71
2018-02-23T21:11:10.286Z,-71
2018-02-23T21:12:10.195Z,-71
2018-02-23T21:13:10.281Z,-71
2018-02-23T21:14:10.169Z,-71
2018-02-23T21:15:16.720Z,-71
2018-02-23T21:16:12.936Z,-71
2018-02-23T21:17:10.310Z,-71
2018-02-23T21:18:10.172Z,-72
2018-02-23T21:19:10.286Z,-72
2018-02-23T21:20:10.171Z,-71
2018-02-23T21:21:10.287Z,-71
2018-02-23T21:22:10.202Z,-71
2018-02-23T21:23:10.293Z,-71
2018-02-23T21:24:10.174Z,-71
2018-02-23T21:25:10.291Z,-71
2018-02-23T21:26:10.177Z,-71
2018-02-23T21:27:10.707Z,-71
2018-02-23T21:28:10.297Z,-71
2018-02-23T21:29:10.304Z,-71
2018-02-23T21:30:10.180Z,-71
2018-02-23T21:31:10.296Z,-72
2018-02-23T21:32:10.205Z,-72
2018-02-23T21:33:10.297Z,-72
2018-02-23T21:34:10.199Z,-71
2018-02-23T21:35:10.296Z,-71
2018-02-23T21:36:10.183Z,-71
2018-02-23T21:37:10.321Z,-71
2018-02-23T21:38:10.184Z,-71
2018-02-23T21:39:10.300Z,-71
2018-02-23T21:40:10.186Z,-71
2018-02-23T21:41:10.304Z,-71
2018-02-23T21:42:10.215Z,-71
2018-02-23T21:43:10.301Z,-71
2018-02-23T21:44:10.189Z,-71
2018-02-23T21:45:10.309Z,-71
2018-02-23T21:46:10.190Z,-71
2018-02-23T21:47:10.393Z,-71
2018-02-23T21:48:10.190Z,-71
2018-02-23T21:49:10.307Z,-71
2018-02-23T21:50:10.194Z,-71
2018-02-23T21:51:10.309Z,-71
2018-02-23T21:52:10.217Z,-72
2018-02-23T21:53:10.310Z,-72
2018-02-23T21:54:10.196Z,-72
2018-02-23T21:55:10.313Z,-72
2018-02-23T21:56:10.195Z,-72
2018-02-23T21:57:10.334Z,-71
2018-02-23T21:58:10.348Z,-71
2018-02-23T21:59:10.319Z,-71
2018-02-23T22:00:10.205Z,-71
2018-02-23T22:01:10.668Z,-71
2018-02-23T22:02:10.352Z,-71
2018-02-23T22:03:10.317Z,-71
2018-02-23T22:04:10.203Z,-71
2018-02-23T22:05:10.319Z,-72
2018-02-23T22:06:10.203Z,-72
2018-02-23T22:07:10.343Z,-72
2018-02-23T22:08:10.205Z,-71
2018-02-23T22:09:10.322Z,-72
2018-02-23T22:10:10.218Z,-72
2018-02-23T22:11:10.319Z,-72
2018-02-23T22:12:10.232Z,-72
2018-02-23T22:13:10.325Z,-72
2018-02-23T22:14:10.209Z,-72
2018-02-23T22:15:10.320Z,-72
2018-02-23T22:16:10.210Z,-72
2018-02-23T22:17:10.360Z,-71
2018-02-23T22:18:10.213Z,-71
2018-02-23T22:19:10.328Z,-71
2018-02-23T22:20:10.212Z,-71
2018-02-23T22:21:10.515Z,-71
2018-02-23T22:22:10.240Z,-71
2018-02-23T22:23:10.330Z,-71
2018-02-23T22:24:10.218Z,-71
2018-02-23T22:25:10.335Z,-71
2018-02-23T22:26:10.218Z,-71
2018-02-23T22:27:10.357Z,-71
2018-02-23T22:28:10.218Z,-71
2018-02-23T22:29:10.334Z,-71
2018-02-23T22:30:10.219Z,-71
2018-02-23T22:31:10.335Z,-71
2018-02-23T22:32:10.245Z,-71
2018-02-23T22:33:10.342Z,-71
2018-02-23T22:34:10.221Z,-71
2018-02-23T22:35:10.393Z,-71
2018-02-23T22:36:10.222Z,-71
2018-02-23T22:37:10.362Z,-71
2018-02-23T22:38:10.224Z,-71
2018-02-23T22:39:10.339Z,-71
2018-02-23T22:40:10.225Z,-71
2018-02-23T22:41:10.342Z,-71
2018-02-23T22:42:10.251Z,-71
2018-02-23T22:43:10.347Z,-71
2018-02-23T22:44:10.234Z,-71
2018-02-23T22:45:10.347Z,-71
2018-02-23T22:46:10.232Z,-71
2018-02-23T22:47:10.370Z,-71
2018-02-23T22:48:10.232Z,-71
2018-02-23T22:49:10.344Z,-71
2018-02-23T22:50:10.233Z,-72
2018-02-23T22:51:10.357Z,-72
2018-02-23T22:52:10.307Z,-72
2018-02-23T22:53:10.349Z,-72
2018-02-23T22:54:10.236Z,-72
2018-02-23T22:55:10.347Z,-72
2018-02-23T22:56:10.238Z,-72
2018-02-23T22:57:10.377Z,-72
2018-02-23T22:58:10.239Z,-72
2018-02-23T22:59:10.354Z,-72
2018-02-23T23:00:10.240Z,-72
2018-02-23T23:01:10.355Z,-72
2018-02-23T23:02:10.264Z,-72
2018-02-23T23:03:10.358Z,-72
2018-02-23T23:04:10.314Z,-72
2018-02-23T23:05:10.359Z,-72
2018-02-23T23:06:10.251Z,-72
2018-02-23T23:07:10.361Z,-72
2018-02-23T23:08:10.374Z,-72
2018-02-23T23:09:10.367Z,-72
2018-02-23T23:10:10.247Z,-72
2018-02-23T23:11:10.361Z,-72
2018-02-23T23:12:10.251Z,-72
2018-02-23T23:13:10.395Z,-72
2018-02-23T23:14:10.247Z,-72
2018-02-23T23:15:10.368Z,-72
2018-02-23T23:16:10.254Z,-72
2018-02-23T23:17:10.549Z,-72
2018-02-23T23:18:10.403Z,-72
2018-02-23T23:19:10.373Z,-72
2018-02-23T23:20:10.251Z,-72
2018-02-23T23:21:10.424Z,-72
2018-02-23T23:22:10.256Z,-72
2018-02-23T23:23:10.393Z,-72
2018-02-23T23:24:10.256Z,-72
2018-02-23T23:25:10.376Z,-72
2018-02-23T23:26:10.259Z,-72
2018-02-23T23:27:10.372Z,-72
2018-02-23T23:28:10.280Z,-72
2018-02-23T23:29:10.377Z,-72
2018-02-23T23:30:10.261Z,-72
2018-02-23T23:31:10.376Z,-72
2018-02-23T23:32:10.260Z,-72
2018-02-23T23:33:10.405Z,-71
2018-02-23T23:34:10.262Z,-71
2018-02-23T23:35:10.381Z,-71
2018-02-23T23:36:11.440Z,-71
2018-02-23T23:37:10.721Z,-72
2018-02-23T23:38:10.287Z,-72
2018-02-23T23:39:10.380Z,-71
2018-02-23T23:40:10.265Z,-71
2018-02-23T23:41:10.845Z,-71
2018-02-23T23:42:10.269Z,-71
2018-02-23T23:43:10.408Z,-71
2018-02-23T23:44:10.285Z,-71
2018-02-23T23:45:10.385Z,-71
2018-02-23T23:46:10.285Z,-72
2018-02-23T23:47:10.384Z,-72
2018-02-23T23:48:10.300Z,-73
2018-02-23T23:49:10.388Z,-73
2018-02-23T23:50:10.272Z,-73
2018-02-23T23:51:10.389Z,-73
2018-02-23T23:52:10.275Z,-73
2018-02-23T23:53:10.416Z,-73
2018-02-23T23:54:10.277Z,-73
2018-02-23T23:55:10.394Z,-73
2018-02-23T23:56:10.286Z,-73
2018-02-23T23:57:10.397Z,-73
2018-02-23T23:58:10.306Z,-73
2018-02-23T23:59:10.398Z,-73
